Time;durP1;ratioP1;P1;durP2;ratioP2;P2;SDS_P1;SDS_P2;PMS_P1;PMS_P2;Temp;Humidity;BMP_temperature;BMP_pressure;BME280_temperature;BME280_humidity;BME280_pressure;Samples;Min_cycle;Max_cycle;Signal;HPM_P1;HPM_P2
2021/01/27 00:00:39;;;;;;;0.60;0.60;;;1.30;99.90;;;;;;4993894;28;20648;-69
2021/01/27 00:03:06;;;;;;;0.30;0.30;;;1.30;99.90;;;;;;4994023;28;20214;-69
2021/01/27 00:05:37;;;;;;;0.30;0.30;;;1.30;99.90;;;;;;4994034;28;20635;-69
2021/01/27 00:08:04;;;;;;;0.30;0.30;;;1.30;99.90;;;;;;4993812;28;20266;-69
2021/01/27 00:10:30;;;;;;;0.32;0.32;;;1.30;99.90;;;;;;4975688;28;20180;-69
2021/01/27 00:12:57;;;;;;;0.40;0.40;;;1.30;99.90;;;;;;4978298;28;20191;-68
2021/01/27 00:15:29;;;;;;;0.52;0.52;;;1.30;99.90;;;;;;4984732;28;20188;-68
2021/01/27 00:17:55;;;;;;;0.40;0.40;;;1.30;99.90;;;;;;4993960;28;20549;-68
2021/01/27 00:20:23;;;;;;;0.30;0.30;;;1.30;99.90;;;;;;4993026;28;20175;-69
2021/01/27 00:22:49;;;;;;;0.30;0.30;;;1.30;99.90;;;;;;4992372;28;20420;-68
2021/01/27 00:25:18;;;;;;;0.47;0.47;;;1.30;99.90;;;;;;4991801;28;20190;-69
2021/01/27 00:27:44;;;;;;;0.40;0.40;;;1.30;99.90;;;;;;4993779;28;20211;-69
2021/01/27 00:30:15;;;;;;;0.40;0.40;;;1.30;99.90;;;;;;4993679;28;20194;-68
2021/01/27 00:32:41;;;;;;;0.45;0.45;;;1.40;99.90;;;;;;4993737;28;20192;-68
2021/01/27 00:35:07;;;;;;;0.30;0.30;;;1.40;99.90;;;;;;4993029;28;20574;-69
2021/01/27 00:37:34;;;;;;;0.30;0.30;;;1.50;99.90;;;;;;4993539;28;20195;-69
2021/01/27 00:39:59;;;;;;;0.40;0.40;;;1.50;99.90;;;;;;4984883;28;20175;-68
2021/01/27 00:42:25;;;;;;;1.57;1.47;;;1.60;99.90;;;;;;4982378;28;20233;-67
2021/01/27 00:44:50;;;;;;;0.30;0.30;;;1.60;99.90;;;;;;4975520;28;20641;-68
2021/01/27 00:47:16;;;;;;;0.50;0.50;;;1.60;99.90;;;;;;4993654;28;20209;-68
2021/01/27 00:49:42;;;;;;;0.30;0.30;;;1.60;99.90;;;;;;4993461;28;20178;-68
2021/01/27 00:52:07;;;;;;;0.30;0.30;;;1.60;99.90;;;;;;4993905;28;20696;-68
2021/01/27 00:54:33;;;;;;;0.30;0.30;;;1.60;99.90;;;;;;4993437;28;20175;-69
2021/01/27 00:56:59;;;;;;;0.30;0.30;;;1.70;99.90;;;;;;4992935;28;20284;-68
2021/01/27 00:59:24;;;;;;;0.40;0.40;;;1.70;99.90;;;;;;4993420;28;20175;-69
2021/01/27 01:01:50;;;;;;;0.33;0.33;;;1.70;99.90;;;;;;4993821;28;20258;-69
2021/01/27 01:04:16;;;;;;;0.30;0.30;;;1.80;99.90;;;;;;4993334;28;20170;-69
2021/01/27 01:06:41;;;;;;;0.30;0.30;;;1.70;99.90;;;;;;4975752;28;20262;-68
2021/01/27 01:09:07;;;;;;;0.30;0.30;;;1.70;99.90;;;;;;4992295;28;20195;-68
2021/01/27 01:11:32;;;;;;;0.40;0.40;;;1.70;99.90;;;;;;4992654;28;20599;-68
2021/01/27 01:13:58;;;;;;;0.30;0.30;;;1.70;99.90;;;;;;4993408;28;20254;-68
2021/01/27 01:16:24;;;;;;;0.53;0.53;;;1.70;99.90;;;;;;4993334;28;20214;-68
2021/01/27 01:18:49;;;;;;;0.30;0.30;;;1.70;99.90;;;;;;4993111;28;20270;-69
2021/01/27 01:21:15;;;;;;;0.30;0.30;;;1.70;99.90;;;;;;4995195;28;20179;-68
2021/01/27 01:23:42;;;;;;;0.30;0.23;;;1.70;99.90;;;;;;4993629;28;20226;-72
2021/01/27 01:26:08;;;;;;;0.40;0.40;;;1.70;99.90;;;;;;4996366;28;20191;-69
2021/01/27 01:28:34;;;;;;;0.30;0.30;;;1.60;99.90;;;;;;4979534;28;20258;-68
2021/01/27 01:31:00;;;;;;;0.30;0.30;;;1.60;99.90;;;;;;4979407;28;20175;-69
2021/01/27 01:33:31;;;;;;;0.30;0.30;;;1.60;99.90;;;;;;4979530;28;20800;-69
2021/01/27 01:35:58;;;;;;;0.30;0.30;;;1.60;99.90;;;;;;4996180;28;20462;-68
2021/01/27 01:38:24;;;;;;;0.30;0.30;;;1.60;99.90;;;;;;4997013;28;20190;-69
2021/01/27 01:40:53;;;;;;;2.10;1.27;;;1.60;99.90;;;;;;4996290;28;20695;-69
2021/01/27 01:43:23;;;;;;;0.30;0.30;;;1.60;99.90;;;;;;4978807;28;20190;-69
2021/01/27 01:45:52;;;;;;;0.40;0.40;;;1.60;99.90;;;;;;4994932;28;20275;-69
2021/01/27 01:48:30;;;;;;;0.40;0.40;;;1.60;99.90;;;;;;4979224;28;20257;-68
2021/01/27 01:51:07;;;;;;;0.30;0.30;;;1.60;99.90;;;;;;4996590;28;20183;-68
2021/01/27 01:53:33;;;;;;;0.30;0.30;;;1.70;99.90;;;;;;4996428;28;20213;-68
2021/01/27 01:56:01;;;;;;;0.30;0.30;;;1.70;99.90;;;;;;4978323;28;20227;-67
2021/01/27 01:58:28;;;;;;;0.70;0.70;;;1.60;99.90;;;;;;4995885;28;20176;-68
2021/01/27 02:00:57;;;;;;;0.40;0.40;;;1.60;99.90;;;;;;4995889;28;20187;-68
2021/01/27 02:03:26;;;;;;;0.40;0.40;;;1.50;99.90;;;;;;4995919;28;20186;-68
2021/01/27 02:05:51;;;;;;;0.50;0.50;;;1.60;99.90;;;;;;4995700;28;20226;-68
2021/01/27 02:08:17;;;;;;;0.30;0.30;;;1.50;99.90;;;;;;4995727;28;20223;-68
2021/01/27 02:10:43;;;;;;;0.40;0.40;;;1.50;99.90;;;;;;4994280;28;20182;-67
2021/01/27 02:13:29;;;;;;;0.40;0.40;;;1.50;99.90;;;;;;4986552;28;20179;-69
2021/01/27 02:16:10;;;;;;;0.40;0.40;;;1.50;99.90;;;;;;5015486;28;20676;-68
2021/01/27 02:19:02;;;;;;;0.30;0.25;;;1.40;99.90;;;;;;4995685;28;20191;-69
2021/01/27 02:21:45;;;;;;;0.40;0.40;;;1.50;99.90;;;;;;4977148;28;20573;-68
2021/01/27 02:24:23;;;;;;;0.40;0.40;;;1.50;99.90;;;;;;4996013;28;20574;-68
2021/01/27 02:27:01;;;;;;;0.30;0.30;;;1.50;99.90;;;;;;4995022;28;20199;-68
2021/01/27 02:29:35;;;;;;;0.30;0.30;;;1.50;99.90;;;;;;4996123;28;20180;-68
2021/01/27 02:32:18;;;;;;;0.30;0.30;;;1.50;99.90;;;;;;4995628;28;20168;-69
2021/01/27 02:35:02;;;;;;;0.40;0.40;;;1.50;99.90;;;;;;4995376;28;20175;-69
2021/01/27 02:37:37;;;;;;;0.40;0.40;;;1.50;99.90;;;;;;4995406;28;20202;-68
2021/01/27 02:40:29;;;;;;;0.40;0.40;;;1.50;99.90;;;;;;4994154;28;20265;-69
2021/01/27 02:43:26;;;;;;;0.40;0.40;;;1.50;99.90;;;;;;4984852;28;20554;-68
2021/01/27 02:46:22;;;;;;;0.30;0.30;;;1.50;99.90;;;;;;4995124;28;20197;-69
2021/01/27 02:49:00;;;;;;;0.50;0.50;;;1.50;99.90;;;;;;4992975;28;20575;-68
2021/01/27 02:51:35;;;;;;;0.40;0.40;;;1.40;99.90;;;;;;4995334;28;20171;-68
2021/01/27 02:54:33;;;;;;;0.40;0.40;;;1.40;99.90;;;;;;4977086;28;20190;-70
2021/01/27 02:57:18;;;;;;;3.33;1.42;;;1.40;99.90;;;;;;4941147;28;20203;-68
2021/01/27 03:00:01;;;;;;;0.35;0.35;;;1.40;99.90;;;;;;4986563;28;20246;-68
2021/01/27 03:02:38;;;;;;;0.30;0.30;;;1.40;99.90;;;;;;4994988;28;20167;-70
2021/01/27 03:05:27;;;;;;;0.40;0.40;;;1.50;99.90;;;;;;4995139;28;20162;-68
2021/01/27 03:07:58;;;;;;;0.50;0.50;;;1.50;99.90;;;;;;4994894;28;20200;-68
2021/01/27 03:10:44;;;;;;;0.30;0.30;;;1.50;99.90;;;;;;4993762;28;20172;-68
2021/01/27 03:13:11;;;;;;;0.30;0.30;;;1.50;99.90;;;;;;4995278;28;20247;-68
2021/01/27 03:15:38;;;;;;;0.30;0.30;;;1.50;99.90;;;;;;4994408;28;20271;-68
2021/01/27 03:18:12;;;;;;;1.98;1.88;;;1.50;99.90;;;;;;4976982;28;20654;-68
2021/01/27 03:20:41;;;;;;;0.30;0.30;;;1.50;99.90;;;;;;4994627;28;20190;-68
2021/01/27 03:23:16;;;;;;;0.30;0.30;;;1.50;99.90;;;;;;4994920;28;20644;-68
2021/01/27 03:26:01;;;;;;;0.30;0.30;;;1.50;99.90;;;;;;4993138;28;20182;-68
2021/01/27 03:28:33;;;;;;;0.40;0.40;;;1.50;99.90;;;;;;4994959;28;20214;-68
2021/01/27 03:30:59;;;;;;;0.30;0.30;;;1.50;99.90;;;;;;4994333;28;20190;-69
2021/01/27 03:33:29;;;;;;;0.30;0.30;;;1.50;99.90;;;;;;4994787;28;20171;-68
2021/01/27 03:36:00;;;;;;;0.30;0.30;;;1.50;99.90;;;;;;4994097;28;20269;-69
2021/01/27 03:38:35;;;;;;;0.30;0.30;;;1.50;99.90;;;;;;4994753;28;20172;-69
2021/01/27 03:41:17;;;;;;;0.30;0.30;;;1.50;99.90;;;;;;4992415;28;20178;-68
2021/01/27 03:44:06;;;;;;;0.38;0.38;;;1.50;99.90;;;;;;4976699;28;20186;-68
2021/01/27 03:46:41;;;;;;;0.40;0.40;;;1.40;99.90;;;;;;4972405;28;20210;-69
2021/01/27 03:49:20;;;;;;;0.47;0.47;;;1.50;99.90;;;;;;4994490;28;20232;-68
2021/01/27 03:51:52;;;;;;;0.40;0.40;;;1.40;99.90;;;;;;4994351;28;20178;-68
2021/01/27 03:54:19;;;;;;;0.30;0.30;;;1.40;99.90;;;;;;4994321;28;20522;-68
2021/01/27 03:56:54;;;;;;;0.40;0.40;;;1.40;99.90;;;;;;4975992;28;20531;-68
2021/01/27 03:59:20;;;;;;;0.30;0.30;;;1.40;99.90;;;;;;4994477;28;20194;-68
2021/01/27 04:01:50;;;;;;;0.30;0.30;;;1.40;99.90;;;;;;4980984;28;20564;-69
2021/01/27 04:04:16;;;;;;;0.30;0.30;;;1.40;99.90;;;;;;4986805;28;20458;-69
2021/01/27 04:06:42;;;;;;;0.30;0.30;;;1.40;99.90;;;;;;4993088;28;20223;-68
2021/01/27 04:09:09;;;;;;;0.30;0.30;;;1.40;99.90;;;;;;4993501;28;20468;-69
2021/01/27 04:11:35;;;;;;;0.40;0.40;;;1.40;99.90;;;;;;4977040;28;20183;-69
2021/01/27 04:14:00;;;;;;;0.30;0.30;;;1.40;99.90;;;;;;4993911;28;20644;-69
2021/01/27 04:16:26;;;;;;;0.33;0.33;;;1.40;99.90;;;;;;4993530;28;20191;-69
2021/01/27 04:18:52;;;;;;;0.30;0.30;;;1.40;99.90;;;;;;4993692;28;20183;-68
2021/01/27 04:21:17;;;;;;;0.40;0.40;;;1.50;99.90;;;;;;4994497;28;20435;-69
2021/01/27 04:23:46;;;;;;;0.30;0.30;;;1.50;99.90;;;;;;4993470;28;20187;-68
2021/01/27 04:26:11;;;;;;;0.40;0.40;;;1.60;99.90;;;;;;4993796;28;20233;-67
2021/01/27 04:28:37;;;;;;;0.80;0.80;;;1.50;99.90;;;;;;4993625;28;20240;-67
2021/01/27 04:31:03;;;;;;;0.40;0.40;;;1.50;99.90;;;;;;4992723;28;20179;-68
2021/01/27 04:33:28;;;;;;;0.30;0.30;;;1.50;99.90;;;;;;4993544;28;20191;-68
2021/01/27 04:35:54;;;;;;;0.30;0.30;;;1.40;99.90;;;;;;4976107;28;20191;-68
2021/01/27 04:38:20;;;;;;;0.30;0.30;;;1.50;99.90;;;;;;4992881;28;20180;-69
2021/01/27 04:40:47;;;;;;;0.40;0.40;;;1.40;99.90;;;;;;4994033;28;20178;-67
2021/01/27 04:43:25;;;;;;;0.45;0.45;;;1.30;99.90;;;;;;4993511;28;20194;-67
2021/01/27 04:46:00;;;;;;;0.30;0.30;;;1.30;99.90;;;;;;4993224;28;20681;-68
2021/01/27 04:48:37;;;;;;;0.30;0.30;;;1.20;99.90;;;;;;4993878;28;20206;-67
2021/01/27 04:51:04;;;;;;;0.30;0.30;;;1.20;99.90;;;;;;4993635;28;20178;-68
2021/01/27 04:53:54;;;;;;;0.30;0.30;;;1.20;99.90;;;;;;4993337;28;20199;-68
2021/01/27 04:56:41;;;;;;;0.30;0.30;;;1.20;99.90;;;;;;4994753;28;20198;-67
2021/01/27 04:59:32;;;;;;;0.30;0.30;;;1.10;99.90;;;;;;4996184;28;20196;-68
2021/01/27 05:02:07;;;;;;;0.30;0.30;;;1.10;99.90;;;;;;4974969;28;20709;-69
2021/01/27 05:04:41;;;;;;;0.30;0.30;;;1.00;99.90;;;;;;4997436;28;20684;-68
2021/01/27 05:07:25;;;;;;;0.98;0.98;;;1.00;99.90;;;;;;4996879;28;20195;-68
2021/01/27 05:09:59;;;;;;;0.40;0.40;;;0.90;99.90;;;;;;4997294;28;20175;-70
2021/01/27 05:12:43;;;;;;;0.30;0.30;;;0.90;99.90;;;;;;4996953;28;20171;-68
2021/01/27 05:15:11;;;;;;;0.40;0.40;;;0.80;99.90;;;;;;4997275;28;20585;-69
2021/01/27 05:17:41;;;;;;;0.38;0.38;;;0.70;99.90;;;;;;4979300;28;20215;-68
2021/01/27 05:20:09;;;;;;;0.30;0.30;;;0.70;99.90;;;;;;4979914;28;20180;-68
2021/01/27 05:22:38;;;;;;;0.35;0.35;;;0.70;99.90;;;;;;4979315;28;20523;-69
2021/01/27 05:25:12;;;;;;;0.40;0.40;;;0.60;99.90;;;;;;4978730;28;20183;-69
2021/01/27 05:27:39;;;;;;;0.30;0.30;;;0.60;99.90;;;;;;4996514;28;20195;-70
2021/01/27 05:30:07;;;;;;;0.47;0.47;;;0.60;99.90;;;;;;4993997;28;20591;-68
2021/01/27 05:32:49;;;;;;;0.35;0.35;;;0.60;99.90;;;;;;4979442;28;20163;-68
2021/01/27 05:35:33;;;;;;;0.30;0.30;;;0.50;99.90;;;;;;4996251;28;20167;-69
2021/01/27 05:38:17;;;;;;;0.40;0.40;;;0.60;99.90;;;;;;4996832;28;20508;-68
2021/01/27 05:40:43;;;;;;;0.30;0.30;;;0.50;99.90;;;;;;4996447;28;20179;-68
2021/01/27 05:43:22;;;;;;;0.40;0.40;;;0.60;99.90;;;;;;4995704;28;20196;-67
2021/01/27 05:45:50;;;;;;;0.30;0.30;;;0.60;99.90;;;;;;4995817;28;20202;-68
2021/01/27 05:48:24;;;;;;;0.40;0.40;;;0.60;99.90;;;;;;4978763;28;20227;-69
2021/01/27 05:50:52;;;;;;;0.40;0.40;;;0.60;99.90;;;;;;4968592;28;20180;-68
2021/01/27 05:53:24;;;;;;;0.40;0.40;;;0.60;99.90;;;;;;4976979;28;20165;-68
2021/01/27 05:55:57;;;;;;;0.35;0.35;;;0.50;99.90;;;;;;4983130;28;20615;-71
2021/01/27 05:58:23;;;;;;;0.38;0.38;;;0.50;99.90;;;;;;4976930;28;20231;-67
2021/01/27 06:00:49;;;;;;;0.30;0.30;;;0.40;99.90;;;;;;4986451;28;20179;-68
2021/01/27 06:03:22;;;;;;;0.38;0.38;;;0.50;99.90;;;;;;4993964;28;20579;-68
2021/01/27 06:05:50;;;;;;;0.30;0.30;;;0.50;99.90;;;;;;4994768;28;20233;-68
2021/01/27 06:08:21;;;;;;;0.30;0.30;;;0.50;99.90;;;;;;4993866;28;20260;-68
2021/01/27 06:10:48;;;;;;;0.40;0.40;;;0.50;99.90;;;;;;4995927;28;20195;-69
2021/01/27 06:13:29;;;;;;;0.30;0.30;;;0.50;99.90;;;;;;4996176;28;20167;-69
2021/01/27 06:15:55;;;;;;;0.30;0.30;;;0.60;99.90;;;;;;4974413;28;20203;-69
2021/01/27 06:18:30;;;;;;;0.30;0.30;;;0.60;99.90;;;;;;4995360;28;20206;-69
2021/01/27 06:21:31;;;;;;;0.40;0.40;;;0.70;99.90;;;;;;4995448;28;20208;-70
2021/01/27 06:24:15;;;;;;;0.40;0.40;;;0.90;99.90;;;;;;4978105;28;20185;-69
2021/01/27 06:27:18;;;;;;;0.70;0.70;;;1.00;99.90;;;;;;4978221;28;20304;-69
2021/01/27 06:30:03;;;;;;;0.30;0.30;;;1.10;99.90;;;;;;4994375;28;20670;-68
2021/01/27 06:32:41;;;;;;;0.30;0.30;;;1.20;99.90;;;;;;4982599;28;20184;-69
2021/01/27 06:35:29;;;;;;;0.40;0.40;;;1.10;99.90;;;;;;4977866;28;20183;-69
2021/01/27 06:37:58;;;;;;;0.88;0.75;;;1.10;99.90;;;;;;4995609;28;20546;-69
2021/01/27 06:40:42;;;;;;;0.30;0.30;;;1.10;99.90;;;;;;4995207;28;20191;-69
2021/01/27 06:43:32;;;;;;;0.30;0.30;;;1.10;99.90;;;;;;4995486;28;20523;-69
2021/01/27 06:46:45;;;;;;;0.40;0.40;;;1.20;99.90;;;;;;4994588;28;20206;-70
2021/01/27 06:49:34;;;;;;;0.40;0.40;;;1.10;99.90;;;;;;4954787;29;20211;-70
2021/01/27 06:52:30;;;;;;;0.40;0.40;;;1.10;99.90;;;;;;4955366;29;20179;-69
2021/01/27 06:55:30;;;;;;;0.30;0.30;;;1.10;99.90;;;;;;4949099;29;20186;-70
2021/01/27 06:58:48;;;;;;;0.35;0.35;;;1.10;99.90;;;;;;4935676;29;20194;-69
2021/01/27 07:01:33;;;;;;;0.30;0.30;;;1.20;99.90;;;;;;4858988;29;20207;-69
2021/01/27 07:04:32;;;;;;;0.40;0.40;;;1.20;99.90;;;;;;4929140;29;20201;-70
2021/01/27 07:07:10;;;;;;;0.38;0.38;;;1.30;99.90;;;;;;4934578;29;20245;-69
2021/01/27 07:09:44;;;;;;;0.30;0.30;;;1.30;99.90;;;;;;4936191;29;20272;-70
2021/01/27 07:12:33;;;;;;;0.57;0.57;;;1.40;99.90;;;;;;4939817;29;20546;-67
2021/01/27 07:15:07;;;;;;;0.30;0.30;;;1.40;99.90;;;;;;4934623;29;20177;-67
2021/01/27 07:17:38;;;;;;;1.30;1.30;;;1.40;99.90;;;;;;4948461;29;20368;-69
2021/01/27 07:20:10;;;;;;;0.30;0.30;;;1.40;99.90;;;;;;4958856;28;20556;-68
2021/01/27 07:23:18;;;;;;;1.60;0.80;;;1.40;99.90;;;;;;4989088;28;20176;-67
2021/01/27 07:26:04;;;;;;;0.30;0.30;;;1.50;99.90;;;;;;4988613;28;20523;-70
2021/01/27 07:28:40;;;;;;;0.30;0.30;;;1.50;99.90;;;;;;4976598;28;20195;-70
2021/01/27 07:31:16;;;;;;;0.30;0.30;;;1.50;99.90;;;;;;4992743;28;20179;-70
2021/01/27 07:34:11;;;;;;;0.30;0.30;;;1.60;99.90;;;;;;4993984;28;20187;-68
2021/01/27 07:36:41;;;;;;;0.40;0.40;;;1.70;99.90;;;;;;4951704;29;20215;-68
2021/01/27 07:39:24;;;;;;;0.30;0.30;;;1.80;99.90;;;;;;4942123;29;20193;-69
2021/01/27 07:42:24;;;;;;;0.30;0.30;;;2.00;99.90;;;;;;4935479;29;20190;-69
2021/01/27 07:44:56;;;;;;;0.30;0.30;;;2.10;99.90;;;;;;4921435;29;20197;-69
2021/01/27 07:47:33;;;;;;;0.30;0.30;;;2.20;99.90;;;;;;4946592;29;20216;-70
2021/01/27 07:50:00;;;;;;;0.30;0.20;;;2.30;99.90;;;;;;4953003;29;20262;-69
2021/01/27 07:52:34;;;;;;;0.30;0.30;;;2.40;99.90;;;;;;4949326;29;20172;-69
2021/01/27 07:55:16;;;;;;;0.30;0.30;;;2.40;99.90;;;;;;4949180;29;20200;-69
2021/01/27 07:57:55;;;;;;;0.40;0.40;;;2.40;99.90;;;;;;4940819;29;20209;-68
2021/01/27 08:00:53;;;;;;;0.63;0.63;;;2.40;99.90;;;;;;4934165;29;20252;-68
2021/01/27 08:03:18;;;;;;;0.30;0.30;;;2.50;99.90;;;;;;4941597;29;20681;-68
2021/01/27 08:05:46;;;;;;;0.50;0.50;;;2.50;99.90;;;;;;4951043;29;20202;-67
2021/01/27 08:08:15;;;;;;;0.30;0.30;;;2.50;99.90;;;;;;4949584;29;20645;-70
2021/01/27 08:10:42;;;;;;;0.50;0.50;;;2.50;99.90;;;;;;4934039;29;20522;-66
2021/01/27 08:13:25;;;;;;;0.40;0.40;;;2.40;99.90;;;;;;4963526;28;20254;-66
2021/01/27 08:16:00;;;;;;;0.40;0.40;;;2.50;99.90;;;;;;4993439;28;20302;-70
2021/01/27 08:18:26;;;;;;;0.30;0.30;;;2.50;99.90;;;;;;4988611;28;20182;-67
2021/01/27 08:21:25;;;;;;;0.30;0.30;;;2.60;99.90;;;;;;4975869;28;20179;-68
2021/01/27 08:23:52;;;;;;;0.40;0.40;;;2.60;99.90;;;;;;4991575;28;20920;-70
2021/01/27 08:26:42;;;;;;;0.30;0.30;;;2.60;99.90;;;;;;4992465;28;20199;-70
2021/01/27 08:29:24;;;;;;;0.40;0.40;;;2.70;99.90;;;;;;4990822;28;20206;-68
2021/01/27 08:32:24;;;;;;;0.30;0.30;;;2.70;99.90;;;;;;4998819;28;20183;-69
2021/01/27 08:34:56;;;;;;;0.40;0.40;;;2.70;99.90;;;;;;4999611;28;20175;-69
2021/01/27 08:37:24;;;;;;;0.30;0.30;;;2.70;99.90;;;;;;4999657;28;20214;-69
2021/01/27 08:40:31;;;;;;;0.40;0.40;;;2.70;99.90;;;;;;4981764;28;20183;-67
2021/01/27 08:42:59;;;;;;;0.30;0.30;;;2.80;99.90;;;;;;4991795;28;20175;-71
2021/01/27 08:45:27;;;;;;;0.40;0.40;;;2.80;99.90;;;;;;4999216;28;20179;-72
2021/01/27 08:47:59;;;;;;;0.30;0.30;;;2.80;99.90;;;;;;4999085;28;20241;-68
2021/01/27 08:51:03;;;;;;;0.40;0.40;;;2.70;99.90;;;;;;5000128;28;20259;-68
2021/01/27 08:53:52;;;;;;;0.40;0.40;;;2.70;99.90;;;;;;4948725;29;20190;-71
2021/01/27 08:56:18;;;;;;;3.70;1.10;;;2.60;99.90;;;;;;4942336;28;20730;-69
2021/01/27 08:58:49;;;;;;;0.30;0.30;;;2.50;99.90;;;;;;4956798;29;20256;-67
2021/01/27 09:01:29;;;;;;;0.43;0.43;;;2.50;99.90;;;;;;4959186;29;20180;-67
2021/01/27 09:03:55;;;;;;;0.30;0.30;;;2.50;99.90;;;;;;4956869;28;20192;-66
2021/01/27 09:06:21;;;;;;;0.30;0.30;;;2.60;99.90;;;;;;4973605;28;20203;-70
2021/01/27 09:08:48;;;;;;;0.40;0.40;;;2.50;99.90;;;;;;4961086;28;20620;-72
2021/01/27 09:11:17;;;;;;;0.30;0.30;;;2.50;99.90;;;;;;4958361;29;20587;-70
2021/01/27 09:13:45;;;;;;;0.30;0.30;;;2.40;99.90;;;;;;4947706;28;20187;-66
2021/01/27 09:16:18;;;;;;;0.30;0.30;;;2.40;99.90;;;;;;4976686;28;20206;-68
2021/01/27 09:18:54;;;;;;;0.40;0.40;;;2.50;99.90;;;;;;4956722;28;20612;-67
2021/01/27 09:21:22;;;;;;;0.30;0.30;;;2.50;99.90;;;;;;4943308;29;20187;-67
2021/01/27 09:24:00;;;;;;;0.30;0.30;;;2.50;99.90;;;;;;4945392;28;20215;-67
2021/01/27 09:26:34;;;;;;;0.40;0.40;;;2.40;99.90;;;;;;4942270;29;20207;-67
2021/01/27 09:29:08;;;;;;;0.30;0.30;;;2.40;99.90;;;;;;4957918;29;20207;-67
2021/01/27 09:31:34;;;;;;;0.30;0.30;;;2.40;99.90;;;;;;4978609;28;20180;-68
2021/01/27 09:34:11;;;;;;;0.30;0.30;;;2.40;99.90;;;;;;4962837;28;20630;-67
2021/01/27 09:36:37;;;;;;;0.30;0.30;;;2.50;99.90;;;;;;4998815;28;20452;-69
2021/01/27 09:39:03;;;;;;;0.30;0.30;;;2.50;99.90;;;;;;5019098;28;20205;-67
2021/01/27 09:41:33;;;;;;;0.30;0.30;;;2.60;99.90;;;;;;5017624;28;20753;-68
2021/01/27 09:44:01;;;;;;;0.30;0.30;;;2.60;99.90;;;;;;4998470;28;20269;-67
2021/01/27 09:46:37;;;;;;;0.30;0.30;;;2.60;99.90;;;;;;5015418;28;20197;-66
2021/01/27 09:49:14;;;;;;;0.30;0.30;;;2.50;99.90;;;;;;5015947;28;20273;-67
2021/01/27 09:51:47;;;;;;;0.35;0.35;;;2.40;99.90;;;;;;5015836;28;20249;-68
2021/01/27 09:54:14;;;;;;;0.40;0.40;;;2.50;99.90;;;;;;5015983;28;20170;-67
2021/01/27 09:56:40;;;;;;;0.30;0.30;;;2.50;99.90;;;;;;5015464;28;20582;-67
2021/01/27 09:59:07;;;;;;;0.30;0.30;;;2.40;99.90;;;;;;5015908;28;20206;-67
2021/01/27 10:01:45;;;;;;;0.30;0.30;;;2.40;99.90;;;;;;5015939;28;20513;-67
2021/01/27 10:04:16;;;;;;;0.40;0.40;;;2.40;99.90;;;;;;5016012;28;20163;-67
2021/01/27 10:06:56;;;;;;;0.30;0.30;;;3.10;99.90;;;;;;5015255;28;20187;-68
2021/01/27 10:09:38;;;;;;;0.40;0.40;;;2.40;99.90;;;;;;5015668;28;20202;-66
2021/01/27 10:12:06;;;;;;;0.30;0.30;;;2.40;99.90;;;;;;5014628;28;20273;-66
2021/01/27 10:14:35;;;;;;;0.30;0.30;;;2.30;99.90;;;;;;4995724;28;20171;-67
2021/01/27 10:17:09;;;;;;;0.30;0.30;;;2.20;99.90;;;;;;4995306;28;20193;-66
2021/01/27 10:19:48;;;;;;;0.30;0.20;;;2.20;99.90;;;;;;4995991;28;20172;-67
2021/01/27 10:22:23;;;;;;;0.30;0.30;;;2.30;99.90;;;;;;4996032;28;20172;-67
2021/01/27 10:25:00;;;;;;;0.30;0.30;;;2.30;99.90;;;;;;4995422;28;20171;-67
2021/01/27 10:27:41;;;;;;;0.30;0.30;;;2.30;99.90;;;;;;4995555;28;20191;-67
2021/01/27 10:30:16;;;;;;;0.30;0.30;;;2.20;99.90;;;;;;4978137;28;20573;-67
2021/01/27 10:32:43;;;;;;;0.30;0.30;;;2.20;99.90;;;;;;4995735;28;20175;-67
2021/01/27 10:35:24;;;;;;;0.30;0.30;;;2.20;99.90;;;;;;4995149;28;20184;-66
2021/01/27 10:37:54;;;;;;;0.40;0.40;;;2.20;99.90;;;;;;4995541;28;20301;-66
2021/01/27 10:40:24;;;;;;;0.30;0.30;;;2.20;99.90;;;;;;4995620;28;20180;-67
2021/01/27 10:42:52;;;;;;;0.30;0.30;;;2.20;99.90;;;;;;4995522;28;20178;-68
2021/01/27 10:45:43;;;;;;;0.30;0.30;;;2.30;99.90;;;;;;4995058;28;20259;-67
2021/01/27 10:48:26;;;;;;;0.30;0.30;;;2.40;99.90;;;;;;4971442;28;20644;-69
2021/01/27 10:51:09;;;;;;;0.30;0.30;;;2.50;99.90;;;;;;4995542;28;20160;-69
2021/01/27 10:53:38;;;;;;;0.30;0.28;;;2.60;99.90;;;;;;4994306;28;20255;-70
2021/01/27 10:56:04;;;;;;;0.40;0.40;;;2.70;99.90;;;;;;4993750;28;20613;-69
2021/01/27 10:58:30;;;;;;;0.40;0.40;;;2.70;99.90;;;;;;4995359;28;20183;-68
2021/01/27 11:00:56;;;;;;;0.30;0.20;;;2.70;99.90;;;;;;4994851;28;20710;-69
2021/01/27 11:03:22;;;;;;;0.40;0.40;;;2.60;99.90;;;;;;4995231;28;20259;-69
2021/01/27 11:05:48;;;;;;;0.30;0.30;;;2.60;99.90;;;;;;4994399;28;20534;-68
2021/01/27 11:08:29;;;;;;;0.60;0.60;;;2.60;99.90;;;;;;4995078;28;20630;-68
2021/01/27 11:10:56;;;;;;;0.65;0.65;;;2.60;99.90;;;;;;4994823;28;20246;-68
2021/01/27 11:13:22;;;;;;;0.50;0.50;;;2.60;99.90;;;;;;5006292;28;20257;-69
2021/01/27 11:15:49;;;;;;;0.30;0.30;;;2.60;99.90;;;;;;4999904;28;20227;-68
2021/01/27 11:18:15;;;;;;;0.35;0.35;;;2.60;99.90;;;;;;4994548;28;20210;-69
2021/01/27 11:20:41;;;;;;;0.70;0.70;;;2.60;99.90;;;;;;4994343;28;20282;-71
2021/01/27 11:23:07;;;;;;;0.40;0.40;;;2.70;99.90;;;;;;4994566;28;20222;-70
2021/01/27 11:25:32;;;;;;;0.30;0.30;;;2.60;99.90;;;;;;5003576;28;20178;-70
2021/01/27 11:27:58;;;;;;;0.30;0.30;;;2.70;99.90;;;;;;5010018;28;20202;-70
2021/01/27 11:30:28;;;;;;;0.30;0.30;;;2.60;99.90;;;;;;4994062;28;20172;-70
2021/01/27 11:32:54;;;;;;;0.35;0.35;;;2.60;99.90;;;;;;4992734;28;20261;-68
2021/01/27 11:35:21;;;;;;;0.30;0.30;;;2.70;99.90;;;;;;4993692;28;20183;-67
2021/01/27 11:37:48;;;;;;;0.30;0.30;;;2.70;99.90;;;;;;4994655;28;20203;-69
2021/01/27 11:40:16;;;;;;;1.38;1.38;;;2.70;99.90;;;;;;4974849;28;20179;-68
2021/01/27 11:42:45;;;;;;;0.30;0.30;;;2.70;99.90;;;;;;4994141;28;20190;-68
2021/01/27 11:45:12;;;;;;;0.30;0.30;;;2.60;99.90;;;;;;4973280;28;20190;-68
2021/01/27 11:47:39;;;;;;;0.40;0.40;;;2.60;99.90;;;;;;4994166;28;20673;-68
2021/01/27 11:50:07;;;;;;;0.30;0.30;;;2.70;99.90;;;;;;4992283;28;20171;-70
2021/01/27 11:52:33;;;;;;;0.50;0.50;;;2.80;99.90;;;;;;4994127;28;20270;-69
2021/01/27 11:54:59;;;;;;;0.40;0.40;;;2.80;99.90;;;;;;4974203;28;20300;-68
2021/01/27 11:57:25;;;;;;;0.40;0.40;;;3.00;99.90;;;;;;4976296;28;20453;-68
2021/01/27 11:59:50;;;;;;;1.02;1.02;;;3.20;99.90;;;;;;4993678;28;20175;-69
2021/01/27 12:02:16;;;;;;;0.30;0.30;;;3.40;99.90;;;;;;4993384;28;20198;-67
2021/01/27 12:04:42;;;;;;;0.30;0.30;;;3.50;99.90;;;;;;4993165;28;20172;-74
2021/01/27 12:07:07;;;;;;;0.33;0.33;;;3.50;99.90;;;;;;4993862;28;20689;-68
2021/01/27 12:09:36;;;;;;;0.30;0.30;;;3.60;99.90;;;;;;4992093;28;20558;-70
2021/01/27 12:12:04;;;;;;;0.30;0.30;;;3.70;99.90;;;;;;4993866;28;20634;-66
2021/01/27 12:14:29;;;;;;;0.32;0.32;;;3.80;99.90;;;;;;4994210;28;20190;-68
2021/01/27 12:16:55;;;;;;;0.30;0.30;;;3.80;99.90;;;;;;4993551;28;20191;-68
2021/01/27 12:19:21;;;;;;;0.30;0.30;;;3.80;99.90;;;;;;4993888;28;20538;-68
2021/01/27 12:21:46;;;;;;;0.30;0.30;;;3.90;99.90;;;;;;4993840;28;20179;-67
2021/01/27 12:24:13;;;;;;;0.30;0.30;;;3.90;99.90;;;;;;4993372;28;20179;-69
2021/01/27 12:26:41;;;;;;;0.30;0.30;;;3.90;99.90;;;;;;4993549;28;20195;-68
2021/01/27 12:29:07;;;;;;;0.40;0.40;;;3.80;99.90;;;;;;4993461;28;20712;-68
2021/01/27 12:31:32;;;;;;;0.30;0.30;;;3.80;99.90;;;;;;4976279;28;20243;-68
2021/01/27 12:33:58;;;;;;;0.30;0.30;;;3.80;99.90;;;;;;4993755;28;20171;-68
2021/01/27 12:36:24;;;;;;;0.30;0.30;;;3.70;99.90;;;;;;4993544;28;20200;-67
2021/01/27 12:38:49;;;;;;;0.30;0.30;;;3.60;99.90;;;;;;4993400;28;20273;-67
2021/01/27 12:41:15;;;;;;;0.30;0.30;;;3.70;99.90;;;;;;4993711;28;20179;-67
2021/01/27 12:43:41;;;;;;;0.30;0.30;;;3.60;99.90;;;;;;4993473;28;20179;-67
2021/01/27 12:46:07;;;;;;;0.40;0.40;;;3.60;99.90;;;;;;4975778;28;20304;-68
2021/01/27 12:48:33;;;;;;;0.30;0.30;;;3.60;99.90;;;;;;4976250;28;20219;-66
2021/01/27 12:51:02;;;;;;;0.30;0.30;;;3.60;99.90;;;;;;4993680;28;20411;-66
2021/01/27 12:53:28;;;;;;;0.40;0.40;;;3.60;99.90;;;;;;4976065;28;20422;-66
2021/01/27 12:55:54;;;;;;;0.30;0.30;;;3.50;99.90;;;;;;4993472;28;20187;-66
2021/01/27 12:58:21;;;;;;;0.30;0.20;;;3.50;99.90;;;;;;4993817;28;20577;-68
2021/01/27 13:00:47;;;;;;;0.30;0.30;;;3.70;99.90;;;;;;4975834;28;20184;-66
2021/01/27 13:03:13;;;;;;;0.30;0.30;;;3.80;99.90;;;;;;4993439;28;20229;-68
2021/01/27 13:05:40;;;;;;;0.50;0.50;;;4.00;99.90;;;;;;4992625;28;20574;-68
2021/01/27 13:08:06;;;;;;;0.30;0.30;;;4.10;99.90;;;;;;4992755;28;20261;-68
2021/01/27 13:10:32;;;;;;;0.30;0.30;;;4.20;99.90;;;;;;4993681;28;20171;-67
2021/01/27 13:12:59;;;;;;;0.30;0.30;;;4.20;99.90;;;;;;4993093;28;20857;-69
2021/01/27 13:15:25;;;;;;;0.30;0.30;;;4.20;99.90;;;;;;4992836;28;20176;-67
2021/01/27 13:17:53;;;;;;;0.30;0.20;;;4.10;99.90;;;;;;4994880;28;20187;-67
2021/01/27 13:20:21;;;;;;;0.40;0.40;;;4.00;99.90;;;;;;4996979;28;20179;-68
2021/01/27 13:22:48;;;;;;;0.40;0.40;;;3.90;99.90;;;;;;4997018;28;20188;-67
2021/01/27 13:25:18;;;;;;;0.30;0.30;;;3.80;99.90;;;;;;4978895;28;20182;-68
2021/01/27 13:27:44;;;;;;;0.30;0.30;;;3.70;99.90;;;;;;4996700;28;20299;-68